createdAt,value
2019-03-02T00:00:09.147Z,8.80
2019-03-02T00:01:09.703Z,8.30
2019-03-02T00:02:09.129Z,9.30
2019-03-02T00:03:09.123Z,7.70
2019-03-02T00:04:10.213Z,8.90
2019-03-02T00:05:09.107Z,7.20
2019-03-02T00:06:09.098Z,8.90
2019-03-02T00:07:11.334Z,7.80
2019-03-02T00:08:09.080Z,8.50
2019-03-02T00:09:09.076Z,10.30
2019-03-02T00:10:10.059Z,9.70
2019-03-02T00:11:09.060Z,7.50
2019-03-02T00:12:09.066Z,7.30
2019-03-02T00:13:09.051Z,7.90
2019-03-02T00:14:09.033Z,7.20
2019-03-02T00:15:09.028Z,9.30
2019-03-02T00:16:09.017Z,7.90
2019-03-02T00:17:09.014Z,7.50
2019-03-02T00:18:09.002Z,8.20
2019-03-02T00:19:08.996Z,6.80
2019-03-02T00:20:08.985Z,7.10
2019-03-02T00:21:08.983Z,7.40
2019-03-02T00:22:08.971Z,8.20
2019-03-02T00:23:08.966Z,7.70
2019-03-02T00:24:08.954Z,6.90
2019-03-02T00:25:08.953Z,7.50
2019-03-02T00:26:10.298Z,7.40
2019-03-02T00:27:08.937Z,8.00
2019-03-02T00:28:08.924Z,6.70
2019-03-02T00:29:11.038Z,8.30
2019-03-02T00:30:08.911Z,6.40
2019-03-02T00:31:08.903Z,6.80
2019-03-02T00:32:09.646Z,7.50
2019-03-02T00:33:08.893Z,7.60
2019-03-02T00:34:08.877Z,9.10
2019-03-02T00:35:08.873Z,8.30
2019-03-02T00:36:08.869Z,9.20
2019-03-02T00:37:08.873Z,8.40
2019-03-02T00:38:10.004Z,8.60
2019-03-02T00:39:08.846Z,10.10
2019-03-02T00:40:08.837Z,8.70
2019-03-02T00:41:08.825Z,9.00
2019-03-02T00:42:08.820Z,9.10
2019-03-02T00:43:08.812Z,8.00
2019-03-02T00:44:08.809Z,8.00
2019-03-02T00:45:10.667Z,6.80
2019-03-02T00:46:08.782Z,8.50
2019-03-02T00:47:08.776Z,7.80
2019-03-02T00:48:11.187Z,8.50
2019-03-02T00:49:08.760Z,6.40
2019-03-02T00:50:08.751Z,6.30
2019-03-02T00:51:11.243Z,6.30
2019-03-02T00:52:08.734Z,9.10
2019-03-02T00:53:08.728Z,7.90
2019-03-02T00:54:11.366Z,7.90
2019-03-02T00:55:08.716Z,6.60
2019-03-02T00:56:09.106Z,6.70
2019-03-02T00:57:08.698Z,6.40
2019-03-02T00:58:08.703Z,7.40
2019-03-02T00:59:08.681Z,6.70
2019-03-02T01:00:11.703Z,7.20
2019-03-02T01:01:08.675Z,9.50
2019-03-02T01:02:08.670Z,8.00
2019-03-02T01:03:11.944Z,7.80
2019-03-02T01:04:08.637Z,6.90
2019-03-02T01:05:08.632Z,7.20
2019-03-02T01:06:09.027Z,9.70
2019-03-02T01:07:08.620Z,7.40
2019-03-02T01:08:08.605Z,6.70
2019-03-02T01:09:11.748Z,6.40
2019-03-02T01:10:08.589Z,7.30
2019-03-02T01:11:08.583Z,8.00
2019-03-02T01:12:09.155Z,6.20
2019-03-02T01:13:08.566Z,6.90
2019-03-02T01:14:08.557Z,7.90
2019-03-02T01:15:09.211Z,6.60
2019-03-02T01:16:08.542Z,6.40
2019-03-02T01:17:08.541Z,6.10
2019-03-02T01:18:08.525Z,5.60
2019-03-02T01:19:08.521Z,7.40
2019-03-02T01:20:08.510Z,5.50
2019-03-02T01:21:08.507Z,5.00
2019-03-02T01:22:08.494Z,4.50
2019-03-02T01:23:08.489Z,4.70
2019-03-02T01:24:08.478Z,5.20
2019-03-02T01:25:10.394Z,4.90
2019-03-02T01:26:08.462Z,5.00
2019-03-02T01:27:08.457Z,5.10
2019-03-02T01:28:09.703Z,5.30
2019-03-02T01:29:08.441Z,5.40
2019-03-02T01:30:08.431Z,7.30
2019-03-02T01:31:08.432Z,6.00
2019-03-02T01:32:08.414Z,6.40
2019-03-02T01:33:08.410Z,6.10
2019-03-02T01:34:08.597Z,6.40
2019-03-02T01:35:08.393Z,6.40
2019-03-02T01:36:08.383Z,6.60
2019-03-02T01:37:08.977Z,6.70
2019-03-02T01:38:08.366Z,7.40
2019-03-02T01:39:08.363Z,8.70
2019-03-02T01:40:08.350Z,9.00
2019-03-02T01:41:08.344Z,7.40
2019-03-02T01:42:08.334Z,8.30
2019-03-02T01:43:08.328Z,7.60
2019-03-02T01:44:08.316Z,8.90
2019-03-02T01:45:08.311Z,9.30
2019-03-02T01:46:08.301Z,8.00
2019-03-02T01:47:08.294Z,8.70
2019-03-02T01:48:08.284Z,8.30
2019-03-02T01:49:08.288Z,10.80
2019-03-02T01:50:08.659Z,8.80
2019-03-02T01:51:08.260Z,8.60
2019-03-02T01:52:08.249Z,8.60
2019-03-02T01:53:09.897Z,9.50
2019-03-02T01:54:08.232Z,9.90
2019-03-02T01:55:08.227Z,8.70
2019-03-02T01:56:08.217Z,9.40
2019-03-02T01:57:08.209Z,8.80
2019-03-02T01:58:08.198Z,8.80
2019-03-02T01:59:08.195Z,9.10
2019-03-02T02:00:10.437Z,9.70
2019-03-02T02:01:08.180Z,10.30
2019-03-02T02:02:08.164Z,10.00
2019-03-02T02:03:08.590Z,10.30
2019-03-02T02:04:08.147Z,9.30
2019-03-02T02:05:08.141Z,9.80
2019-03-02T02:06:08.751Z,13.00
2019-03-02T02:07:08.127Z,11.30
2019-03-02T02:08:08.113Z,9.50
2019-03-02T02:09:08.109Z,10.10
2019-03-02T02:10:08.397Z,11.80
2019-03-02T02:11:08.090Z,10.30
2019-03-02T02:12:08.080Z,10.00
2019-03-02T02:13:08.073Z,12.40
2019-03-02T02:14:08.063Z,12.60
2019-03-02T02:15:08.058Z,10.80
2019-03-02T02:16:08.050Z,10.40
2019-03-02T02:17:08.041Z,9.50
2019-03-02T02:18:08.030Z,13.20
2019-03-02T02:19:08.024Z,11.60
2019-03-02T02:20:11.056Z,12.70
2019-03-02T02:21:08.007Z,10.70
2019-03-02T02:22:07.997Z,11.70
2019-03-02T02:23:09.885Z,11.90
2019-03-02T02:24:07.985Z,11.10
2019-03-02T02:25:07.989Z,10.90
2019-03-02T02:26:11.232Z,11.60
2019-03-02T02:27:07.958Z,11.00
2019-03-02T02:28:07.947Z,12.50
2019-03-02T02:29:09.431Z,12.40
2019-03-02T02:30:07.935Z,12.20
2019-03-02T02:31:08.106Z,11.80
2019-03-02T02:32:07.915Z,12.90
2019-03-02T02:33:07.921Z,12.90
2019-03-02T02:34:07.899Z,13.10
2019-03-02T02:35:07.892Z,13.40
2019-03-02T02:36:07.883Z,13.80
2019-03-02T02:37:07.876Z,13.50
2019-03-02T02:38:11.108Z,14.30
2019-03-02T02:39:07.858Z,14.00
2019-03-02T02:40:11.894Z,13.90
2019-03-02T02:41:07.842Z,13.50
2019-03-02T02:42:07.831Z,14.00
2019-03-02T02:43:07.828Z,15.80
2019-03-02T02:44:07.815Z,14.60
2019-03-02T02:45:11.013Z,15.70
2019-03-02T02:46:07.798Z,15.70
2019-03-02T02:47:12.458Z,15.50
2019-03-02T02:48:07.779Z,15.70
2019-03-02T02:49:10.258Z,16.80
2019-03-02T02:50:07.769Z,16.10
2019-03-02T02:51:11.729Z,15.90
2019-03-02T02:52:07.749Z,18.30
2019-03-02T02:53:08.398Z,16.70
2019-03-02T02:54:07.730Z,17.90
2019-03-02T02:55:07.724Z,17.10
2019-03-02T02:56:07.714Z,18.30
2019-03-02T02:57:07.707Z,17.30
2019-03-02T02:58:12.790Z,18.60
2019-03-02T02:59:07.690Z,17.50
2019-03-02T03:00:12.018Z,18.20
2019-03-02T03:01:07.673Z,17.30
2019-03-02T03:02:10.767Z,18.50
2019-03-02T03:03:07.672Z,19.20
2019-03-02T03:04:07.644Z,18.90
2019-03-02T03:05:10.110Z,18.20
2019-03-02T03:06:07.628Z,18.00
2019-03-02T03:07:12.291Z,21.10
2019-03-02T03:08:07.614Z,20.50
2019-03-02T03:09:09.871Z,19.70
2019-03-02T03:10:07.595Z,20.80
2019-03-02T03:11:08.303Z,20.60
2019-03-02T03:12:07.579Z,23.50
2019-03-02T03:13:07.577Z,21.00
2019-03-02T03:14:07.560Z,20.10
2019-03-02T03:15:07.568Z,21.90
2019-03-02T03:16:11.684Z,20.60
2019-03-02T03:17:07.537Z,21.00
2019-03-02T03:18:12.504Z,24.60
2019-03-02T03:19:07.529Z,20.50
2019-03-02T03:20:10.352Z,22.60
2019-03-02T03:21:07.502Z,23.10
2019-03-02T03:22:08.983Z,21.40
2019-03-02T03:23:07.555Z,21.30
2019-03-02T03:24:07.474Z,22.00
2019-03-02T03:25:07.471Z,22.20
2019-03-02T03:26:07.459Z,21.60
2019-03-02T03:27:08.855Z,22.00
2019-03-02T03:28:07.440Z,24.60
2019-03-02T03:29:09.718Z,22.10
2019-03-02T03:30:07.425Z,23.40
2019-03-02T03:31:21.929Z,23.00
2019-03-02T03:32:09.188Z,24.80
2019-03-02T03:33:07.402Z,22.20
2019-03-02T03:34:07.401Z,23.90
2019-03-02T03:35:15.703Z,23.40
2019-03-02T03:36:07.385Z,22.10
2019-03-02T03:37:08.437Z,23.70
2019-03-02T03:38:07.360Z,21.20
2019-03-02T03:39:09.092Z,22.90
2019-03-02T03:40:07.339Z,21.90
2019-03-02T03:41:07.334Z,23.50
2019-03-02T03:42:07.331Z,22.80
2019-03-02T03:43:07.336Z,22.20
2019-03-02T03:44:07.305Z,22.80
2019-03-02T03:45:07.303Z,22.60
2019-03-02T03:46:07.289Z,22.10
2019-03-02T03:47:07.284Z,22.80
2019-03-02T03:48:07.271Z,22.60
2019-03-02T03:49:07.271Z,25.70
2019-03-02T03:50:09.331Z,23.10
2019-03-02T03:51:07.250Z,23.70
2019-03-02T03:52:09.132Z,22.60
2019-03-02T03:53:07.229Z,23.30
2019-03-02T03:54:08.929Z,24.90
2019-03-02T03:55:07.215Z,22.80
2019-03-02T03:56:07.218Z,23.90
2019-03-02T03:57:07.194Z,22.10
2019-03-02T03:58:07.188Z,22.80
2019-03-02T03:59:07.177Z,22.30
2019-03-02T04:00:07.170Z,22.80
2019-03-02T04:01:07.162Z,22.60
2019-03-02T04:02:07.154Z,24.90
2019-03-02T04:03:08.807Z,22.80
2019-03-02T04:04:07.143Z,23.60
2019-03-02T04:05:08.681Z,24.60
2019-03-02T04:06:07.119Z,22.70
2019-03-02T04:07:08.198Z,22.50
2019-03-02T04:08:07.106Z,23.40
2019-03-02T04:09:08.230Z,22.80
2019-03-02T04:10:07.083Z,22.40
2019-03-02T04:11:07.074Z,21.10
2019-03-02T04:12:07.069Z,22.80
2019-03-02T04:13:07.056Z,22.80
2019-03-02T04:14:07.051Z,22.80
2019-03-02T04:15:07.052Z,23.80
2019-03-02T04:16:07.032Z,25.00
2019-03-02T04:17:07.022Z,22.40
2019-03-02T04:18:07.016Z,23.40
2019-03-02T04:19:07.003Z,22.40
2019-03-02T04:20:08.014Z,21.90
2019-03-02T04:21:06.987Z,21.90
2019-03-02T04:22:07.998Z,23.20
2019-03-02T04:23:06.969Z,22.00
2019-03-02T04:24:06.963Z,21.10
2019-03-02T04:25:06.951Z,22.30
2019-03-02T04:26:06.951Z,22.40
2019-03-02T04:27:10.971Z,23.20
2019-03-02T04:28:06.927Z,24.10
2019-03-02T04:29:10.177Z,24.20
2019-03-02T04:30:06.912Z,23.00
2019-03-02T04:31:09.153Z,20.10
2019-03-02T04:32:06.893Z,20.20
2019-03-02T04:33:07.642Z,21.80
2019-03-02T04:34:06.877Z,20.30
2019-03-02T04:35:06.865Z,22.50
2019-03-02T04:36:10.030Z,19.50
2019-03-02T04:37:06.848Z,20.40
2019-03-02T04:38:06.840Z,20.20
2019-03-02T04:39:09.573Z,20.70
2019-03-02T04:40:06.823Z,19.30
2019-03-02T04:41:06.810Z,21.00
2019-03-02T04:42:06.805Z,19.00
2019-03-02T04:43:06.808Z,19.40
2019-03-02T04:44:06.786Z,18.70
2019-03-02T04:45:06.794Z,18.60
2019-03-02T04:46:06.770Z,19.60
2019-03-02T04:47:06.758Z,19.40
2019-03-02T04:48:06.750Z,18.80
2019-03-02T04:49:06.739Z,19.10
2019-03-02T04:50:06.737Z,20.40
2019-03-02T04:51:06.721Z,19.40
2019-03-02T04:52:06.715Z,21.10
2019-03-02T04:53:06.704Z,19.60
2019-03-02T04:54:06.698Z,19.70
2019-03-02T04:55:09.568Z,19.30
2019-03-02T04:56:06.678Z,18.70
2019-03-02T04:57:06.667Z,20.40
2019-03-02T04:58:08.572Z,18.90
2019-03-02T04:59:06.650Z,19.80
2019-03-02T05:00:06.648Z,21.50
2019-03-02T05:01:07.082Z,19.50
2019-03-02T05:02:06.628Z,20.00
2019-03-02T05:03:06.614Z,20.60
2019-03-02T05:04:06.607Z,21.00
2019-03-02T05:05:08.430Z,20.20
2019-03-02T05:06:06.590Z,20.90
2019-03-02T05:07:06.581Z,20.30
2019-03-02T05:08:06.574Z,19.60
2019-03-02T05:09:06.562Z,22.90
2019-03-02T05:10:06.557Z,20.40
2019-03-02T05:11:06.546Z,21.10
2019-03-02T05:12:06.538Z,19.70
2019-03-02T05:13:06.529Z,20.30
2019-03-02T05:14:06.522Z,20.90
2019-03-02T05:15:06.513Z,19.30
2019-03-02T05:16:06.506Z,18.20
2019-03-02T05:17:07.311Z,21.50
2019-03-02T05:18:06.490Z,21.80
2019-03-02T05:19:06.482Z,20.70
2019-03-02T05:20:06.472Z,21.30
2019-03-02T05:21:06.463Z,21.90
2019-03-02T05:22:06.456Z,22.70
2019-03-02T05:23:06.446Z,21.40
2019-03-02T05:24:09.188Z,21.80
2019-03-02T05:25:06.430Z,21.20
2019-03-02T05:26:06.425Z,21.20
2019-03-02T05:27:06.412Z,22.10
2019-03-02T05:28:07.272Z,21.70
2019-03-02T05:29:06.395Z,21.20
2019-03-02T05:30:06.389Z,22.80
2019-03-02T05:31:07.027Z,21.00
2019-03-02T05:32:06.375Z,20.50
2019-03-02T05:33:06.361Z,21.00
2019-03-02T05:34:06.359Z,21.80
2019-03-02T05:35:06.346Z,21.10
2019-03-02T05:36:06.338Z,20.60
2019-03-02T05:37:06.330Z,22.30
2019-03-02T05:38:06.322Z,23.10
2019-03-02T05:39:06.311Z,23.50
2019-03-02T05:40:06.304Z,22.00
2019-03-02T05:41:06.294Z,22.70
2019-03-02T05:42:06.291Z,22.70
2019-03-02T05:43:06.277Z,21.60
2019-03-02T05:44:06.269Z,22.40
2019-03-02T05:45:06.259Z,21.60
2019-03-02T05:46:06.253Z,21.90
2019-03-02T05:47:06.245Z,20.90
2019-03-02T05:48:06.292Z,21.40
2019-03-02T05:49:06.227Z,22.50
2019-03-02T05:50:06.223Z,22.00
2019-03-02T05:51:06.698Z,22.40
2019-03-02T05:52:06.201Z,22.60
2019-03-02T05:53:06.191Z,21.80
2019-03-02T05:54:07.388Z,22.10
2019-03-02T05:55:06.182Z,22.80
2019-03-02T05:56:06.167Z,23.00
2019-03-02T05:57:06.168Z,21.40
2019-03-02T05:58:06.152Z,22.80
2019-03-02T05:59:06.140Z,22.30
2019-03-02T06:00:06.133Z,25.00
2019-03-02T06:01:06.531Z,24.00
2019-03-02T06:02:06.116Z,21.40
2019-03-02T06:03:06.108Z,21.10
2019-03-02T06:04:06.099Z,22.40
2019-03-02T06:05:06.088Z,24.30
2019-03-02T06:06:06.086Z,22.60
2019-03-02T06:07:06.072Z,22.80
2019-03-02T06:08:06.064Z,22.10
2019-03-02T06:09:08.408Z,22.70
2019-03-02T06:10:06.054Z,22.10
2019-03-02T06:11:06.876Z,24.50
2019-03-02T06:12:06.031Z,23.10
2019-03-02T06:13:06.021Z,25.70
2019-03-02T06:14:07.926Z,24.40
2019-03-02T06:15:07.705Z,21.10
2019-03-02T06:16:05.997Z,22.70
2019-03-02T06:17:05.987Z,22.20
2019-03-02T06:18:07.757Z,23.60
2019-03-02T06:19:05.973Z,24.20
2019-03-02T06:20:05.964Z,22.30
2019-03-02T06:21:07.668Z,21.20
2019-03-02T06:22:05.948Z,22.90
2019-03-02T06:23:05.939Z,21.90
2019-03-02T06:24:06.565Z,24.50
2019-03-02T06:25:05.921Z,21.90
2019-03-02T06:26:05.916Z,22.70
2019-03-02T06:27:07.824Z,22.70
2019-03-02T06:28:05.898Z,20.60
2019-03-02T06:29:05.887Z,21.70
2019-03-02T06:30:08.443Z,22.70
2019-03-02T06:31:05.871Z,24.40
2019-03-02T06:32:05.866Z,23.80
2019-03-02T06:33:08.427Z,24.40
2019-03-02T06:34:05.848Z,26.40
2019-03-02T06:35:05.840Z,24.30
2019-03-02T06:36:08.845Z,26.60
2019-03-02T06:37:05.819Z,24.00
2019-03-02T06:38:05.815Z,24.00
2019-03-02T06:39:07.843Z,24.10
2019-03-02T06:40:05.796Z,24.10
2019-03-02T06:41:05.786Z,23.70
2019-03-02T06:42:06.047Z,25.20
2019-03-02T06:43:05.769Z,23.90
2019-03-02T06:44:05.762Z,23.60
2019-03-02T06:45:08.876Z,24.80
2019-03-02T06:46:05.746Z,23.40
2019-03-02T06:47:05.872Z,24.50
2019-03-02T06:48:09.304Z,25.30
2019-03-02T06:49:07.488Z,26.50
2019-03-02T06:50:05.712Z,25.20
2019-03-02T06:51:07.704Z,26.20
2019-03-02T06:52:05.794Z,25.50
2019-03-02T06:53:05.684Z,24.70
2019-03-02T06:54:08.960Z,24.60
2019-03-02T06:55:05.667Z,25.80
2019-03-02T06:56:05.665Z,24.60
2019-03-02T06:57:05.651Z,25.70
2019-03-02T06:58:05.672Z,24.80
2019-03-02T06:59:05.634Z,28.10
2019-03-02T07:00:05.626Z,24.80
2019-03-02T07:01:05.615Z,25.60
2019-03-02T07:02:05.611Z,27.30
2019-03-02T07:03:06.722Z,27.80
2019-03-02T07:04:05.592Z,25.90
2019-03-02T07:05:07.446Z,26.90
2019-03-02T07:06:08.550Z,26.60
2019-03-02T07:07:06.206Z,26.90
2019-03-02T07:08:05.559Z,28.50
2019-03-02T07:09:05.895Z,28.60
2019-03-02T07:10:05.542Z,27.20
2019-03-02T07:11:05.540Z,27.50
2019-03-02T07:12:05.917Z,27.60
2019-03-02T07:13:05.514Z,28.30
2019-03-02T07:14:05.511Z,28.40
2019-03-02T07:15:08.269Z,27.20
2019-03-02T07:16:05.492Z,27.00
2019-03-02T07:17:05.524Z,27.10
2019-03-02T07:18:06.101Z,27.40
2019-03-02T07:19:05.467Z,26.70
2019-03-02T07:20:05.459Z,27.20
2019-03-02T07:21:06.531Z,27.10
2019-03-02T07:22:05.457Z,28.00
2019-03-02T07:23:05.445Z,27.60
2019-03-02T07:24:05.433Z,26.20
2019-03-02T07:25:06.095Z,28.70
2019-03-02T07:26:05.427Z,28.40
2019-03-02T07:27:05.400Z,27.90
2019-03-02T07:28:06.047Z,28.10
2019-03-02T07:29:05.396Z,28.20
2019-03-02T07:30:05.388Z,29.40
2019-03-02T07:31:05.367Z,28.30
2019-03-02T07:32:05.360Z,27.80
2019-03-02T07:33:05.359Z,27.80
2019-03-02T07:34:08.700Z,28.30
2019-03-02T07:35:05.723Z,27.50
2019-03-02T07:36:05.334Z,27.70
2019-03-02T07:37:05.768Z,29.50
2019-03-02T07:38:05.311Z,28.50
2019-03-02T07:39:05.316Z,28.30
2019-03-02T07:40:05.732Z,27.40
2019-03-02T07:41:05.287Z,28.20
2019-03-02T07:42:05.296Z,28.00
2019-03-02T07:43:06.041Z,28.00
2019-03-02T07:44:05.262Z,27.80
2019-03-02T07:45:05.271Z,28.30
2019-03-02T07:46:08.040Z,29.20
2019-03-02T07:47:05.235Z,26.50
2019-03-02T07:48:05.228Z,27.50
2019-03-02T07:49:05.220Z,27.20
2019-03-02T07:50:05.212Z,26.90
2019-03-02T07:51:06.442Z,26.70
2019-03-02T07:52:05.195Z,27.90
2019-03-02T07:53:05.188Z,28.50
2019-03-02T07:54:06.003Z,28.00
2019-03-02T07:55:05.168Z,27.50
2019-03-02T07:56:05.161Z,28.50
2019-03-02T07:57:08.752Z,29.10
2019-03-02T07:58:05.446Z,29.10
2019-03-02T07:59:05.135Z,28.10
2019-03-02T08:00:05.647Z,27.30
2019-03-02T08:01:05.119Z,28.00
2019-03-02T08:02:05.113Z,30.50
2019-03-02T08:03:05.103Z,30.20
2019-03-02T08:04:05.102Z,28.10
2019-03-02T08:05:05.092Z,28.70
2019-03-02T08:06:05.081Z,28.00
2019-03-02T08:07:05.766Z,31.50
2019-03-02T08:08:06.999Z,30.10
2019-03-02T08:09:05.055Z,30.40
2019-03-02T08:10:05.045Z,30.30
2019-03-02T08:11:05.041Z,31.60
2019-03-02T08:12:05.032Z,32.00
2019-03-02T08:13:05.053Z,28.40
2019-03-02T08:14:05.014Z,31.30
2019-03-02T08:15:05.012Z,33.10
2019-03-02T08:16:05.012Z,34.20
2019-03-02T08:17:04.992Z,33.20
2019-03-02T08:18:04.982Z,31.10
2019-03-02T08:19:05.001Z,32.00
2019-03-02T08:20:04.977Z,33.90
2019-03-02T08:21:04.975Z,33.80
2019-03-02T08:22:07.830Z,32.50
2019-03-02T08:23:04.945Z,32.60
2019-03-02T08:24:04.943Z,33.40
2019-03-02T08:25:04.929Z,32.60
2019-03-02T08:26:04.919Z,33.80
2019-03-02T08:27:04.914Z,33.30
2019-03-02T08:28:06.695Z,32.80
2019-03-02T08:29:04.898Z,32.00
2019-03-02T08:30:04.887Z,31.40
2019-03-02T08:31:05.484Z,32.20
2019-03-02T08:32:04.882Z,32.30
2019-03-02T08:33:04.873Z,34.40
2019-03-02T08:34:05.859Z,35.10
2019-03-02T08:35:04.852Z,32.90
2019-03-02T08:36:04.844Z,33.40
2019-03-02T08:37:04.841Z,34.70
2019-03-02T08:38:05.290Z,36.50
2019-03-02T08:39:06.830Z,35.10
2019-03-02T08:40:04.817Z,35.40
2019-03-02T08:41:04.820Z,36.90
2019-03-02T08:42:04.800Z,35.60
2019-03-02T08:43:04.792Z,37.20
2019-03-02T08:44:04.780Z,36.70
2019-03-02T08:45:04.775Z,37.40
2019-03-02T08:46:07.483Z,36.10
2019-03-02T08:47:05.665Z,36.70
2019-03-02T08:48:04.896Z,37.20
2019-03-02T08:49:06.414Z,39.10
2019-03-02T08:50:04.735Z,36.50
2019-03-02T08:51:04.730Z,38.40
2019-03-02T08:52:04.720Z,35.90
2019-03-02T08:53:04.717Z,38.30
2019-03-02T08:54:04.716Z,38.90
2019-03-02T08:55:04.700Z,38.40
2019-03-02T08:56:05.904Z,39.40
2019-03-02T08:57:04.684Z,39.60
2019-03-02T08:58:04.674Z,39.40
2019-03-02T08:59:04.669Z,37.80
2019-03-02T09:00:04.666Z,35.30
2019-03-02T09:01:04.654Z,42.10
2019-03-02T09:02:04.660Z,41.60
2019-03-02T09:03:04.641Z,41.50
2019-03-02T09:04:04.628Z,40.00
2019-03-02T09:05:04.623Z,37.30
2019-03-02T09:06:11.346Z,40.50
2019-03-02T09:07:07.748Z,43.40
2019-03-02T09:08:04.613Z,41.90
2019-03-02T09:09:04.668Z,40.10
2019-03-02T09:10:04.583Z,40.10
2019-03-02T09:11:04.576Z,37.40
2019-03-02T09:12:04.565Z,40.10
2019-03-02T09:13:04.570Z,40.30
2019-03-02T09:14:04.562Z,38.60
2019-03-02T09:15:04.562Z,41.60
2019-03-02T09:16:05.299Z,40.80
2019-03-02T09:17:04.529Z,40.50
2019-03-02T09:18:04.519Z,44.00
2019-03-02T09:19:04.513Z,43.00
2019-03-02T09:20:04.504Z,41.10
2019-03-02T09:21:04.519Z,42.00
2019-03-02T09:22:04.501Z,41.60
2019-03-02T09:23:04.482Z,38.70
2019-03-02T09:24:04.477Z,40.70
2019-03-02T09:25:04.474Z,42.40
2019-03-02T09:26:05.457Z,42.20
2019-03-02T09:27:04.794Z,40.20
2019-03-02T09:28:04.442Z,39.80
2019-03-02T09:29:04.450Z,41.40
2019-03-02T09:30:04.425Z,41.60
2019-03-02T09:31:04.424Z,42.30
2019-03-02T09:32:04.413Z,41.90
2019-03-02T09:33:04.415Z,42.60
2019-03-02T09:34:05.067Z,45.50
2019-03-02T09:35:04.401Z,43.00
2019-03-02T09:36:04.379Z,43.90
2019-03-02T09:37:07.001Z,47.20
2019-03-02T09:38:04.363Z,43.70
2019-03-02T09:39:04.361Z,42.20
2019-03-02T09:40:06.012Z,44.20
2019-03-02T09:41:04.344Z,44.40
2019-03-02T09:42:04.332Z,42.80
2019-03-02T09:43:04.327Z,44.20
2019-03-02T09:44:04.316Z,48.20
2019-03-02T09:45:07.677Z,44.20
2019-03-02T09:46:04.313Z,44.20
2019-03-02T09:47:05.002Z,43.40
2019-03-02T09:48:04.287Z,42.60
2019-03-02T09:49:04.298Z,44.60
2019-03-02T09:50:04.286Z,47.60
2019-03-02T09:51:04.272Z,44.00
2019-03-02T09:52:04.256Z,46.20
2019-03-02T09:53:04.251Z,44.00
2019-03-02T09:54:04.240Z,45.80
2019-03-02T09:55:04.237Z,44.50
2019-03-02T09:56:04.259Z,45.20
2019-03-02T09:57:04.219Z,48.80
2019-03-02T09:58:06.310Z,45.00
2019-03-02T09:59:04.204Z,47.70
2019-03-02T10:00:04.195Z,50.30
2019-03-02T10:01:04.573Z,49.10
2019-03-02T10:02:04.189Z,51.30
2019-03-02T10:03:04.174Z,50.90
2019-03-02T10:04:06.120Z,46.80
2019-03-02T10:05:04.157Z,51.20
2019-03-02T10:06:04.148Z,52.00
2019-03-02T10:07:04.143Z,54.20
2019-03-02T10:08:04.140Z,55.40
2019-03-02T10:09:04.144Z,49.10
2019-03-02T10:10:04.268Z,55.10
2019-03-02T10:11:06.072Z,55.40
2019-03-02T10:12:04.102Z,56.40
2019-03-02T10:13:04.098Z,54.70
2019-03-02T10:14:04.093Z,53.70
2019-03-02T10:15:04.086Z,53.40
2019-03-02T10:16:04.582Z,58.60
2019-03-02T10:17:04.085Z,56.70
2019-03-02T10:18:04.060Z,57.90
2019-03-02T10:19:04.053Z,59.70
2019-03-02T10:20:05.254Z,59.10
2019-03-02T10:21:04.050Z,55.90
2019-03-02T10:22:04.028Z,56.50
2019-03-02T10:23:05.481Z,54.50
2019-03-02T10:24:04.022Z,57.10
2019-03-02T10:25:04.010Z,55.00
2019-03-02T10:26:07.401Z,59.30
2019-03-02T10:27:05.974Z,60.50
2019-03-02T10:28:04.915Z,55.10
2019-03-02T10:31:34.666Z,57.00
2019-03-02T10:32:34.660Z,59.80
2019-03-02T10:33:34.648Z,58.70
2019-03-02T10:34:34.642Z,58.30
2019-03-02T10:35:34.634Z,60.50
2019-03-02T10:36:34.640Z,62.30
2019-03-02T10:37:34.619Z,58.10
2019-03-02T10:38:34.613Z,62.30
2019-03-02T10:39:34.604Z,62.40
2019-03-02T10:40:34.599Z,60.40
2019-03-02T10:41:34.589Z,59.40
2019-03-02T10:42:35.981Z,64.00
2019-03-02T10:43:34.592Z,64.00
2019-03-02T10:44:34.574Z,58.40
2019-03-02T10:45:34.577Z,60.80
2019-03-02T10:46:34.579Z,63.30
2019-03-02T10:47:34.584Z,61.10
2019-03-02T10:48:34.540Z,58.80
2019-03-02T10:49:34.541Z,54.50
2019-03-02T10:50:34.527Z,57.10
2019-03-02T10:51:37.588Z,55.50
2019-03-02T10:52:34.518Z,56.90
2019-03-02T10:53:34.518Z,56.00
2019-03-02T10:54:34.887Z,55.80
2019-03-02T10:55:34.491Z,54.50
2019-03-02T10:56:36.469Z,58.60
2019-03-02T10:57:34.473Z,58.90
2019-03-02T10:58:34.658Z,59.80
2019-03-02T10:59:34.459Z,60.10
2019-03-02T11:00:34.619Z,56.30
2019-03-02T11:01:34.445Z,61.00
2019-03-02T11:02:34.454Z,56.60
2019-03-02T11:03:34.431Z,55.40
2019-03-02T11:04:34.425Z,56.30
2019-03-02T11:05:34.416Z,57.40
2019-03-02T11:06:34.412Z,58.40
2019-03-02T11:07:34.407Z,58.70
2019-03-02T11:09:22.571Z,58.40
2019-03-02T11:10:21.808Z,57.30
2019-03-02T11:11:21.800Z,58.40
2019-03-02T11:12:21.795Z,54.80
2019-03-02T11:13:21.791Z,62.40
2019-03-02T11:14:21.781Z,56.60
2019-03-02T11:15:21.773Z,57.60
2019-03-02T11:16:21.768Z,61.50
2019-03-02T11:17:23.057Z,60.50
2019-03-02T11:18:21.754Z,58.80
2019-03-02T11:19:21.745Z,59.40
2019-03-02T11:20:24.442Z,58.60
2019-03-02T11:21:21.732Z,57.40
2019-03-02T11:22:21.728Z,54.60
2019-03-02T11:24:21.713Z,61.60
2019-03-02T11:25:21.709Z,56.70
2019-03-02T11:26:21.698Z,54.80
2019-03-02T11:27:21.695Z,54.50
2019-03-02T11:28:21.686Z,60.40
2019-03-02T11:29:22.127Z,56.60
2019-03-02T11:30:22.686Z,55.40
2019-03-02T11:31:21.870Z,56.60
2019-03-02T11:32:21.659Z,54.90
2019-03-02T11:34:09.073Z,53.50
2019-03-02T11:35:10.448Z,55.30
2019-03-02T11:37:09.051Z,54.10
2019-03-02T11:38:09.048Z,52.90
2019-03-02T11:39:09.037Z,52.00
2019-03-02T11:40:09.032Z,58.70
2019-03-02T11:41:09.413Z,53.30
2019-03-02T11:42:10.406Z,56.60
2019-03-02T11:43:09.009Z,53.90
2019-03-02T11:44:09.006Z,57.40
2019-03-02T11:46:01.424Z,51.20
2019-03-02T11:47:01.420Z,51.70
2019-03-02T11:48:01.411Z,56.10
2019-03-02T11:49:01.409Z,54.10
2019-03-02T11:50:01.398Z,52.80
2019-03-02T11:51:01.393Z,53.30
2019-03-02T11:52:02.049Z,52.40
2019-03-02T11:53:01.380Z,51.20
2019-03-02T11:54:01.371Z,52.80
2019-03-02T11:55:04.340Z,50.90
2019-03-02T11:56:03.029Z,51.40
2019-03-02T11:58:13.815Z,50.50
2019-03-02T11:59:13.810Z,52.90
2019-03-02T12:00:13.801Z,54.10
2019-03-02T12:02:15.985Z,52.90
2019-03-02T12:03:13.783Z,54.70
2019-03-02T12:04:15.319Z,51.60
2019-03-02T12:05:13.768Z,48.90
2019-03-02T12:06:13.763Z,50.00
2019-03-02T12:08:01.174Z,47.20
2019-03-02T12:09:01.300Z,49.30
2019-03-02T12:10:05.098Z,50.20
2019-03-02T12:11:01.156Z,47.70
2019-03-02T12:14:47.218Z,49.10
2019-03-02T12:15:49.376Z,51.00
2019-03-02T12:16:46.851Z,50.10
2019-03-02T12:17:46.847Z,47.50
2019-03-02T12:18:46.837Z,46.20
2019-03-02T12:19:46.833Z,50.30
2019-03-02T12:20:46.831Z,47.50
2019-03-02T12:21:46.821Z,48.10
2019-03-02T12:22:46.810Z,44.10
2019-03-02T12:23:46.809Z,43.40
2019-03-02T12:24:46.797Z,45.30
2019-03-02T12:25:46.793Z,45.20
2019-03-02T12:26:47.363Z,47.00
2019-03-02T12:27:46.782Z,45.70
2019-03-02T12:28:46.771Z,45.60
2019-03-02T12:29:49.643Z,44.00
2019-03-02T12:30:46.758Z,44.20
2019-03-02T12:31:46.754Z,44.50
2019-03-02T12:32:46.746Z,44.50
2019-03-02T12:33:46.741Z,46.90
2019-03-02T12:34:46.731Z,42.60
2019-03-02T12:39:01.632Z,41.50
2019-03-02T12:40:44.035Z,40.80
2019-03-02T12:41:44.032Z,39.70
2019-03-02T12:42:44.023Z,41.20
2019-03-02T12:43:45.191Z,41.30
2019-03-02T12:53:09.608Z,36.70
2019-03-02T12:54:10.214Z,37.50
2019-03-02T12:55:09.597Z,34.50
2019-03-02T12:56:09.608Z,36.40
2019-03-02T12:57:09.714Z,36.50
2019-03-02T12:58:09.587Z,37.60
2019-03-02T12:59:09.580Z,33.00
2019-03-02T13:00:09.578Z,36.10
2019-03-02T13:01:09.571Z,35.00
2019-03-02T13:02:09.995Z,34.40
2019-03-02T13:03:09.563Z,36.60
2019-03-02T13:04:10.456Z,37.30
2019-03-02T13:10:03.605Z,36.50
2019-03-02T13:11:03.607Z,33.40
2019-03-02T13:12:05.692Z,33.50
2019-03-02T13:13:03.599Z,36.10
2019-03-02T13:14:04.650Z,35.00
2019-03-02T13:15:05.958Z,36.60
2019-03-02T13:16:03.882Z,33.90
2019-03-02T13:17:03.821Z,37.90
2019-03-02T13:18:03.592Z,37.10
2019-03-02T13:19:03.569Z,36.00
2019-03-02T13:20:03.917Z,37.30
2019-03-02T13:21:03.565Z,36.50
2019-03-02T13:22:03.555Z,34.30
2019-03-02T13:23:06.704Z,34.40
2019-03-02T13:24:03.547Z,35.60
2019-03-02T13:25:03.544Z,37.80
2019-03-02T13:26:07.446Z,34.80